createdAt,value
2018-07-19T00:01:45.597Z,101015.31
2018-07-19T00:04:13.584Z,101013.42
2018-07-19T00:06:41.568Z,101009.64
2018-07-19T00:09:10.295Z,101009.42
2018-07-19T00:11:38.408Z,101013.67
2018-07-19T00:14:07.441Z,101008.83
2018-07-19T00:16:35.480Z,101012.72
2018-07-19T00:19:03.672Z,101011.77
2018-07-19T00:21:31.949Z,101012.97
2018-07-19T00:23:59.962Z,101007.88
2018-07-19T00:26:27.973Z,101008.12
2018-07-19T00:28:55.952Z,101009.59
2018-07-19T00:31:23.952Z,101003.38
2018-07-19T00:33:51.950Z,101003.50
2018-07-19T00:36:19.972Z,101008.11
2018-07-19T00:38:47.964Z,100999.64
2018-07-19T00:41:15.953Z,101003.74
2018-07-19T00:43:43.981Z,100995.76
2018-07-19T00:46:11.965Z,100999.52
2018-07-19T00:48:39.981Z,100996.98
2018-07-19T00:51:08.008Z,101001.55
2018-07-19T00:53:36.011Z,100996.95
2018-07-19T00:56:05.289Z,100991.23
2018-07-19T00:58:33.319Z,100992.24
2018-07-19T01:01:02.431Z,100996.00
2018-07-19T01:03:30.432Z,100996.24
2018-07-19T01:05:58.449Z,100995.89
2018-07-19T01:08:26.536Z,100997.47
2018-07-19T01:10:54.583Z,100992.08
2018-07-19T01:13:22.629Z,100993.83
2018-07-19T01:15:50.628Z,100997.23
2018-07-19T01:18:18.673Z,100996.73
2018-07-19T01:20:46.666Z,100990.64
2018-07-19T01:23:14.669Z,100994.42
2018-07-19T01:25:42.642Z,100994.15
2018-07-19T01:28:10.636Z,100995.09
2018-07-19T01:30:38.630Z,100994.75
2018-07-19T01:33:06.625Z,100989.66
2018-07-19T01:35:34.605Z,100991.16
2018-07-19T01:38:02.798Z,100991.66
2018-07-19T01:40:30.817Z,100994.44
2018-07-19T01:42:59.405Z,100991.77
2018-07-19T01:45:27.377Z,100993.34
2018-07-19T01:47:55.382Z,100988.86
2018-07-19T01:50:23.363Z,100990.33
2018-07-19T01:52:51.386Z,100988.61
2018-07-19T01:55:19.388Z,100997.69
2018-07-19T01:57:47.423Z,100991.03
2018-07-19T02:00:15.563Z,100997.58
2018-07-19T02:02:43.495Z,100996.73
2018-07-19T02:05:11.500Z,100994.08
2018-07-19T02:07:39.536Z,100993.45
2018-07-19T02:10:07.520Z,100991.28
2018-07-19T02:12:35.512Z,100990.94
2018-07-19T02:15:03.523Z,100996.48
2018-07-19T02:17:31.524Z,100995.64
2018-07-19T02:19:59.560Z,100995.29
2018-07-19T02:22:27.564Z,100994.28
2018-07-19T02:24:55.563Z,101000.95
2018-07-19T02:27:23.549Z,100994.07
2018-07-19T02:29:51.618Z,100998.15
2018-07-19T02:32:19.585Z,101002.39
2018-07-19T02:34:47.601Z,101001.66
2018-07-19T02:37:16.680Z,100991.59
2018-07-19T02:39:44.684Z,100988.69
2018-07-19T02:42:12.666Z,100990.86
2018-07-19T02:44:41.308Z,100992.92
2018-07-19T02:47:09.301Z,100992.69
2018-07-19T02:49:37.311Z,100984.20
2018-07-19T02:52:05.315Z,100988.20
2018-07-19T02:54:33.319Z,100987.60
2018-07-19T02:57:01.300Z,100993.63
2018-07-19T02:59:29.320Z,100996.28
2018-07-19T03:01:57.405Z,100994.30
2018-07-19T03:04:25.405Z,100994.41
2018-07-19T03:06:53.400Z,100992.83
2018-07-19T03:09:21.402Z,100994.90
2018-07-19T03:11:49.379Z,100993.33
2018-07-19T03:14:17.416Z,100994.91
2018-07-19T03:16:45.434Z,100992.87
2018-07-19T03:19:13.437Z,100994.30
2018-07-19T03:21:41.432Z,100993.81
2018-07-19T03:24:09.444Z,100985.08
2018-07-19T03:26:37.472Z,100993.06
2018-07-19T03:29:05.569Z,100992.07
2018-07-19T03:31:33.553Z,100994.97
2018-07-19T03:34:01.604Z,100991.47
2018-07-19T03:36:29.616Z,100992.17
2018-07-19T03:38:57.648Z,101000.14
2018-07-19T03:41:25.793Z,100996.89
2018-07-19T03:43:53.797Z,100998.31
2018-07-19T03:46:21.948Z,100996.47
2018-07-19T03:48:50.029Z,100996.63
2018-07-19T03:51:18.038Z,100999.20
2018-07-19T03:53:46.061Z,100993.74
2018-07-19T03:56:14.158Z,100992.06
2018-07-19T03:58:42.150Z,100997.04
2018-07-19T04:01:10.164Z,101000.05
2018-07-19T04:03:38.164Z,101003.72
2018-07-19T04:06:06.158Z,101006.03
2018-07-19T04:08:34.160Z,101008.20
2018-07-19T04:11:02.192Z,101006.64
2018-07-19T04:13:30.188Z,101011.37
2018-07-19T04:15:58.221Z,101008.01
2018-07-19T04:18:27.316Z,101012.84
2018-07-19T04:20:55.316Z,101017.09
2018-07-19T04:23:23.336Z,101012.41
2018-07-19T04:25:51.340Z,101010.73
2018-07-19T04:28:19.354Z,101015.46
2018-07-19T04:30:47.376Z,101020.19
2018-07-19T04:33:15.361Z,101021.45
2018-07-19T04:35:43.369Z,101023.86
2018-07-19T04:38:11.441Z,101020.84
2018-07-19T04:40:39.456Z,101025.08
2018-07-19T04:43:07.466Z,101025.44
2018-07-19T04:45:35.473Z,101031.72
2018-07-19T04:48:03.502Z,101027.85
2018-07-19T04:50:31.512Z,101026.99
2018-07-19T04:52:59.512Z,101024.78
2018-07-19T04:55:27.534Z,101022.56
2018-07-19T04:57:55.520Z,101027.41
2018-07-19T05:00:23.528Z,101027.38
2018-07-19T05:02:51.516Z,101025.71
2018-07-19T05:05:19.516Z,101031.62
2018-07-19T05:07:47.496Z,101035.06
2018-07-19T05:10:15.505Z,101036.47
2018-07-19T05:12:43.492Z,101034.32
2018-07-19T05:15:11.484Z,101044.36
2018-07-19T05:17:39.524Z,101041.93
2018-07-19T05:20:07.537Z,101046.02
2018-07-19T05:22:35.512Z,101053.70
2018-07-19T05:25:03.516Z,101055.80
2018-07-19T05:27:31.560Z,101054.09
2018-07-19T05:29:59.553Z,101060.13
2018-07-19T05:32:27.546Z,101061.59
2018-07-19T05:34:55.529Z,101054.77
2018-07-19T05:37:23.512Z,101055.82
2018-07-19T05:39:51.609Z,101060.02
2018-07-19T05:42:19.643Z,101064.48
2018-07-19T05:44:47.622Z,101067.57
2018-07-19T05:47:15.608Z,101072.55
2018-07-19T05:49:43.597Z,101066.58
2018-07-19T05:52:11.673Z,101062.70
2018-07-19T05:54:39.812Z,101066.94
2018-07-19T05:57:07.852Z,101071.23
2018-07-19T05:59:35.872Z,101072.21
2018-07-19T06:02:03.920Z,101069.88
2018-07-19T06:04:31.908Z,101073.66
2018-07-19T06:07:00.151Z,101072.31
2018-07-19T06:09:28.189Z,101074.49
2018-07-19T06:11:56.185Z,101074.80
2018-07-19T06:14:24.273Z,101075.01
2018-07-19T06:16:52.264Z,101074.52
2018-07-19T06:19:20.281Z,101078.03
2018-07-19T06:21:48.308Z,101087.44
2018-07-19T06:24:16.415Z,101081.94
2018-07-19T06:26:45.190Z,101091.62
2018-07-19T06:29:13.178Z,101091.30
2018-07-19T06:31:41.201Z,101102.59
2018-07-19T06:34:09.214Z,101096.44
2018-07-19T06:36:37.224Z,101096.08
2018-07-19T06:39:07.008Z,101099.33
2018-07-19T06:41:34.992Z,101101.11
2018-07-19T06:44:02.964Z,101110.80
2018-07-19T06:46:30.971Z,101112.91
2018-07-19T06:48:58.939Z,101114.00
2018-07-19T06:51:26.956Z,101109.75
2018-07-19T06:53:54.945Z,101106.36
2018-07-19T06:56:22.933Z,101107.13
2018-07-19T06:58:50.919Z,101109.67
2018-07-19T07:01:18.928Z,101111.53
2018-07-19T07:03:46.937Z,101114.33
2018-07-19T07:06:14.973Z,101103.12
2018-07-19T07:08:43.060Z,101101.17
2018-07-19T07:11:11.077Z,101098.36
2018-07-19T07:13:39.093Z,101104.47
2018-07-19T07:16:07.114Z,101096.53
2018-07-19T07:18:35.105Z,101101.00
2018-07-19T07:21:03.240Z,101099.19
2018-07-19T07:23:31.272Z,101101.84
2018-07-19T07:25:59.293Z,101105.59
2018-07-19T07:28:27.280Z,101106.64
2018-07-19T07:30:55.249Z,101105.11
2018-07-19T07:33:23.235Z,101103.03
2018-07-19T07:35:51.257Z,101100.70
2018-07-19T07:38:20.256Z,101106.48
2018-07-19T07:40:48.802Z,101110.42
2018-07-19T07:43:17.822Z,101106.17
2018-07-19T07:45:45.821Z,101096.34
2018-07-19T07:48:13.822Z,101095.72
2018-07-19T07:50:41.804Z,101097.92
2018-07-19T07:53:10.828Z,101091.94
2018-07-19T07:55:38.840Z,101094.28
2018-07-19T07:58:06.852Z,101089.66
2018-07-19T08:00:34.856Z,101087.38
2018-07-19T08:03:02.853Z,101085.13
2018-07-19T08:05:30.877Z,101095.69
2018-07-19T08:07:58.905Z,101094.28
2018-07-19T08:10:26.891Z,101097.77
2018-07-19T08:12:54.904Z,101091.73
2018-07-19T08:15:22.896Z,101090.38
2018-07-19T08:17:50.911Z,101088.13
2018-07-19T08:20:18.929Z,101087.37
2018-07-19T08:22:46.935Z,101089.09
2018-07-19T08:25:14.948Z,101078.49
2018-07-19T08:27:42.968Z,101081.00
2018-07-19T08:30:10.963Z,101085.39
2018-07-19T08:32:38.960Z,101083.92
2018-07-19T08:35:07.135Z,101080.90
2018-07-19T08:37:35.154Z,101083.08
2018-07-19T08:40:03.146Z,101079.52
2018-07-19T08:42:31.197Z,101079.52
2018-07-19T08:44:59.204Z,101075.97
2018-07-19T08:47:27.214Z,101073.70
2018-07-19T08:49:55.224Z,101066.96
2018-07-19T08:52:23.250Z,101069.55
2018-07-19T08:54:51.232Z,101067.80
2018-07-19T08:57:19.234Z,101069.25
2018-07-19T08:59:47.267Z,101072.41
2018-07-19T09:02:15.400Z,101070.30
2018-07-19T09:04:43.415Z,101066.25
2018-07-19T09:07:11.463Z,101072.18
2018-07-19T09:09:39.428Z,101066.97
2018-07-19T09:12:07.451Z,101070.45
2018-07-19T09:14:35.440Z,101071.91
2018-07-19T09:17:03.472Z,101076.49
2018-07-19T09:19:31.622Z,101071.06
2018-07-19T09:21:59.466Z,101080.57
2018-07-19T09:24:27.473Z,101083.01
2018-07-19T09:26:55.668Z,101079.23
2018-07-19T09:29:23.664Z,101079.53
2018-07-19T09:31:51.656Z,101078.67
2018-07-19T09:34:19.644Z,101079.48
2018-07-19T09:36:47.650Z,101073.31
2018-07-19T09:41:44.958Z,101067.85
2018-07-19T09:44:12.996Z,101059.39
2018-07-19T09:46:41.047Z,101068.43
2018-07-19T09:49:09.277Z,101066.59
2018-07-19T09:51:37.260Z,101063.13
2018-07-19T09:54:05.370Z,101054.78
2018-07-19T09:56:33.424Z,101059.33
2018-07-19T09:59:01.548Z,101056.14
2018-07-19T10:01:29.532Z,101060.52
2018-07-19T10:03:57.589Z,101056.47
2018-07-19T10:06:25.595Z,101061.08
2018-07-19T10:08:53.622Z,101050.03
2018-07-19T10:11:21.649Z,101052.72
2018-07-19T10:13:49.704Z,101058.36
2018-07-19T10:16:17.776Z,101053.92
2018-07-19T10:18:45.752Z,101060.88
2018-07-19T10:21:13.736Z,101055.97
2018-07-19T10:23:41.746Z,101055.30
2018-07-19T10:26:09.728Z,101058.78
2018-07-19T10:28:37.794Z,101062.58
2018-07-19T10:31:05.704Z,101066.73
2018-07-19T10:33:33.732Z,101063.09
2018-07-19T10:36:02.350Z,101054.02
2018-07-19T10:38:30.376Z,101057.92
2018-07-19T10:40:58.357Z,101052.33
2018-07-19T10:43:26.368Z,101054.91
2018-07-19T10:45:54.450Z,101053.77
2018-07-19T10:48:22.683Z,101053.31
2018-07-19T10:50:50.689Z,101040.58
2018-07-19T10:53:18.831Z,101050.94
2018-07-19T10:55:46.841Z,101042.67
2018-07-19T10:58:14.949Z,101038.29
2018-07-19T11:00:42.922Z,101041.88
2018-07-19T11:03:10.950Z,101029.47
2018-07-19T11:05:39.128Z,101038.31
2018-07-19T11:08:07.174Z,101036.91
2018-07-19T11:10:35.160Z,101032.08
2018-07-19T11:13:03.164Z,101030.28
2018-07-19T11:15:31.185Z,101026.98
2018-07-19T11:17:59.172Z,101029.91
2018-07-19T11:20:27.208Z,101032.63
2018-07-19T11:22:55.310Z,101031.89
2018-07-19T11:25:23.456Z,101027.89
2018-07-19T11:27:51.468Z,101018.66
2018-07-19T11:30:19.464Z,101019.19
2018-07-19T11:32:47.448Z,101016.48
2018-07-19T11:35:15.441Z,101023.78
2018-07-19T11:37:43.485Z,101014.58
2018-07-19T11:40:11.472Z,101014.68
2018-07-19T11:42:39.491Z,101015.78
2018-07-19T11:45:07.516Z,101016.59
2018-07-19T11:47:35.524Z,101012.94
2018-07-19T11:50:03.951Z,101013.98
2018-07-19T11:52:32.138Z,101011.99
2018-07-19T11:55:00.245Z,101009.59
2018-07-19T11:57:28.361Z,101015.75
2018-07-19T11:59:56.823Z,101010.93
2018-07-19T12:02:25.087Z,101013.83
2018-07-19T12:04:53.328Z,101014.91
2018-07-19T12:07:21.699Z,101009.20
2018-07-19T12:09:49.802Z,100997.00
2018-07-19T12:12:18.908Z,101008.63
2018-07-19T12:14:47.076Z,101003.52
2018-07-19T12:17:15.332Z,101011.94
2018-07-19T12:19:43.553Z,101004.31
2018-07-19T12:22:11.776Z,101008.80
2018-07-19T12:24:39.893Z,101003.37
2018-07-19T12:27:07.963Z,100995.16
2018-07-19T12:29:35.970Z,100990.74
2018-07-19T12:32:04.057Z,100985.77
2018-07-19T12:34:32.300Z,100981.73
2018-07-19T12:37:00.360Z,100983.72
2018-07-19T12:39:28.568Z,100979.73
2018-07-19T12:41:56.692Z,100973.03
2018-07-19T12:44:24.854Z,100972.20
2018-07-19T12:46:52.863Z,100972.95
2018-07-19T12:49:21.000Z,100974.16
2018-07-19T12:51:49.144Z,100976.89
2018-07-19T12:54:17.213Z,100980.30
2018-07-19T12:56:45.234Z,100977.94
2018-07-19T12:59:13.308Z,100980.08
2018-07-19T13:01:41.504Z,100977.66
2018-07-19T13:04:09.610Z,100986.77
2018-07-19T13:06:37.641Z,100975.45
2018-07-19T13:09:07.796Z,100975.74
2018-07-19T13:11:36.176Z,100975.76
2018-07-19T13:14:04.226Z,100975.72
2018-07-19T13:16:32.388Z,100982.73
2018-07-19T13:19:00.442Z,100981.48
2018-07-19T13:21:28.631Z,100979.95
2018-07-19T13:23:56.775Z,100983.00
2018-07-19T13:26:25.067Z,100977.64
2018-07-19T13:28:53.160Z,100976.73
2018-07-19T13:31:21.197Z,100976.06
2018-07-19T13:33:49.246Z,100977.70
2018-07-19T13:36:17.511Z,100967.59
2018-07-19T13:38:45.592Z,100967.60
2018-07-19T13:41:13.860Z,100967.27
2018-07-19T13:43:42.016Z,100963.57
2018-07-19T13:46:10.073Z,100962.14
2018-07-19T13:48:38.094Z,100963.95
2018-07-19T13:51:06.117Z,100953.23
2018-07-19T13:53:45.696Z,100951.38
2018-07-19T13:56:13.747Z,100955.75
2018-07-19T13:58:41.702Z,100952.84
2018-07-19T14:01:09.687Z,100951.84
2018-07-19T14:03:37.701Z,100953.00
2018-07-19T14:06:05.738Z,100952.61
2018-07-19T14:08:33.732Z,100948.53
2018-07-19T14:11:01.730Z,100942.97
2018-07-19T14:13:29.988Z,100945.08
2018-07-19T14:15:57.976Z,100949.77
2018-07-19T14:18:26.013Z,100948.11
2018-07-19T14:20:54.002Z,100938.83
2018-07-19T14:23:22.077Z,100940.48
2018-07-19T14:25:50.160Z,100936.09
2018-07-19T14:28:18.192Z,100933.92
2018-07-19T14:30:46.226Z,100937.93
2018-07-19T14:33:14.827Z,100929.32
2018-07-19T14:35:42.837Z,100937.22
2018-07-19T14:38:10.818Z,100936.88
2018-07-19T14:40:38.905Z,100937.09
2018-07-19T14:43:06.990Z,100934.73
2018-07-19T14:45:35.056Z,100938.22
2018-07-19T14:48:03.157Z,100945.91
2018-07-19T14:50:31.913Z,100935.84
2018-07-19T14:52:59.912Z,100929.48
2018-07-19T14:55:28.039Z,100935.32
2018-07-19T14:57:57.129Z,100936.03
2018-07-19T15:00:25.272Z,100932.73
2018-07-19T15:02:53.330Z,100924.05
2018-07-19T15:05:21.341Z,100919.78
2018-07-19T15:07:49.409Z,100924.16
2018-07-19T15:10:17.413Z,100924.26
2018-07-19T15:12:45.400Z,100926.66
2018-07-19T15:15:13.400Z,100926.34
2018-07-19T15:17:41.485Z,100922.28
2018-07-19T15:20:09.520Z,100920.81
2018-07-19T15:22:37.506Z,100920.81
2018-07-19T15:25:05.504Z,100924.16
2018-07-19T15:27:33.572Z,100917.58
2018-07-19T15:30:01.559Z,100924.58
2018-07-19T15:32:29.540Z,100914.32
2018-07-19T15:34:57.544Z,100910.15
2018-07-19T15:37:25.563Z,100906.67
2018-07-19T15:39:54.345Z,100910.36
2018-07-19T15:42:22.425Z,100904.81
2018-07-19T15:44:50.492Z,100910.98
2018-07-19T15:47:18.568Z,100900.81
2018-07-19T15:49:46.560Z,100903.98
2018-07-19T15:52:14.547Z,100893.84
2018-07-19T15:54:42.529Z,100895.91
2018-07-19T15:57:10.529Z,100896.56
2018-07-19T15:59:38.525Z,100899.14
2018-07-19T16:02:06.524Z,100891.20
2018-07-19T16:04:34.509Z,100891.30
2018-07-19T16:07:02.510Z,100891.83
2018-07-19T16:09:30.504Z,100891.07
2018-07-19T16:11:58.492Z,100884.92
2018-07-19T16:14:26.506Z,100885.05
2018-07-19T16:16:54.512Z,100879.70
2018-07-19T16:19:22.516Z,100879.25
2018-07-19T16:21:50.569Z,100874.44
2018-07-19T16:24:18.624Z,100871.83
2018-07-19T16:26:46.613Z,100870.28
2018-07-19T16:29:14.589Z,100868.27
2018-07-19T16:31:42.565Z,100869.89
2018-07-19T16:34:10.609Z,100866.80
2018-07-19T16:36:38.595Z,100861.31
2018-07-19T16:39:08.208Z,100870.79
2018-07-19T16:41:36.393Z,100869.38
2018-07-19T16:44:04.393Z,100872.59
2018-07-19T16:46:32.440Z,100868.84
2018-07-19T16:49:00.388Z,100866.53
2018-07-19T16:51:28.385Z,100872.88
2018-07-19T16:53:56.360Z,100875.62
2018-07-19T16:56:24.401Z,100874.03
2018-07-19T16:58:52.373Z,100873.44
2018-07-19T17:01:20.412Z,100879.65
2018-07-19T17:03:48.524Z,100865.78
2018-07-19T17:06:16.537Z,100864.19
2018-07-19T17:08:44.584Z,100859.80
2018-07-19T17:11:12.552Z,100858.10
2018-07-19T17:13:41.617Z,100859.35
2018-07-19T17:16:09.620Z,100861.63
2018-07-19T17:18:37.663Z,100855.67
2018-07-19T17:21:05.686Z,100855.62
2018-07-19T17:23:33.735Z,100846.79
2018-07-19T17:26:01.771Z,100853.21
2018-07-19T17:28:30.896Z,100849.70
2018-07-19T17:30:59.138Z,100852.15
2018-07-19T17:33:27.337Z,100854.93
2018-07-19T17:35:55.543Z,100858.06
2018-07-19T17:38:23.768Z,100857.73
2018-07-19T17:40:51.769Z,100858.30
2018-07-19T17:43:19.841Z,100857.53
2018-07-19T17:45:47.988Z,100856.72
2018-07-19T17:48:17.293Z,100856.73
2018-07-19T17:50:46.456Z,100858.62
2018-07-19T17:53:14.524Z,100853.41
2018-07-19T17:55:42.648Z,100856.55
2018-07-19T17:58:10.969Z,100852.80
2018-07-19T18:00:39.072Z,100854.02
2018-07-19T18:03:07.144Z,100848.22
2018-07-19T18:05:35.517Z,100850.35
2018-07-19T18:08:03.621Z,100843.46
2018-07-19T18:10:31.684Z,100844.99
2018-07-19T18:12:59.756Z,100841.16
2018-07-19T18:15:27.824Z,100844.08
2018-07-19T18:17:56.093Z,100842.77
2018-07-19T18:20:24.296Z,100846.83
2018-07-19T18:22:52.340Z,100842.21
2018-07-19T18:25:20.644Z,100841.14
2018-07-19T18:27:48.676Z,100845.81
2018-07-19T18:30:16.764Z,100843.03
2018-07-19T18:32:44.950Z,100841.86
2018-07-19T18:35:13.016Z,100847.77
2018-07-19T18:37:41.176Z,100848.28
2018-07-19T18:40:09.320Z,100845.46
2018-07-19T18:42:37.441Z,100846.03
2018-07-19T18:45:05.642Z,100848.77
2018-07-19T18:47:33.742Z,100848.13
2018-07-19T18:50:01.797Z,100849.25
2018-07-19T18:52:29.864Z,100841.31
2018-07-19T18:54:58.041Z,100843.64
2018-07-19T18:57:26.144Z,100843.19
2018-07-19T18:59:54.246Z,100843.42
2018-07-19T19:02:22.353Z,100845.65
2018-07-19T19:04:50.508Z,100836.74
2018-07-19T19:07:18.588Z,100840.11
2018-07-19T19:09:46.580Z,100839.51
2018-07-19T19:12:14.593Z,100835.77
2018-07-19T19:14:42.597Z,100835.83
2018-07-19T19:17:10.730Z,100840.59
2018-07-19T19:19:38.860Z,100840.63
2018-07-19T19:22:07.035Z,100843.20
2018-07-19T19:24:35.180Z,100839.64
2018-07-19T19:27:03.364Z,100845.73
2018-07-19T19:29:31.552Z,100844.88
2018-07-19T19:31:59.655Z,100846.98
2018-07-19T19:34:27.729Z,100852.25
2018-07-19T19:36:55.879Z,100852.32
2018-07-19T19:39:23.808Z,100854.66
2018-07-19T19:41:51.861Z,100856.52
2018-07-19T19:44:20.976Z,100860.56
2018-07-19T19:46:49.128Z,100860.56
2018-07-19T19:49:17.412Z,100862.91
2018-07-19T19:51:45.604Z,100857.23
2018-07-19T19:54:13.722Z,100859.25
2018-07-19T19:56:43.121Z,100862.48
2018-07-19T19:59:12.406Z,100857.59
2018-07-19T20:01:40.528Z,100853.83
2018-07-19T20:04:08.712Z,100845.23
2018-07-19T20:06:36.860Z,100847.03
2018-07-19T20:09:07.918Z,100847.55
2018-07-19T20:11:36.117Z,100849.52
2018-07-19T20:14:04.368Z,100854.84
2018-07-19T20:16:32.845Z,100848.70
2018-07-19T20:19:02.098Z,100848.19
2018-07-19T20:21:30.370Z,100852.46
2018-07-19T20:23:58.369Z,100851.01
2018-07-19T20:26:26.465Z,100853.92
2018-07-19T20:28:54.488Z,100851.22
2018-07-19T20:31:22.599Z,100852.09
2018-07-19T20:33:50.812Z,100858.58
2018-07-19T20:36:18.912Z,100854.75
2018-07-19T20:38:47.084Z,100850.21
2018-07-19T20:41:15.312Z,100857.39
2018-07-19T20:43:43.394Z,100850.90
2018-07-19T20:46:11.436Z,100852.23
2018-07-19T20:48:39.533Z,100856.27
2018-07-19T20:51:07.632Z,100855.64
2018-07-19T20:53:35.644Z,100853.78
2018-07-19T20:56:03.648Z,100857.56
2018-07-19T20:58:32.745Z,100854.76
2018-07-19T21:01:01.818Z,100851.19
2018-07-19T21:03:29.853Z,100854.10
2018-07-19T21:05:57.876Z,100852.90
2018-07-19T21:08:25.929Z,100853.09
2018-07-19T21:10:54.067Z,100855.47
2018-07-19T21:13:22.073Z,100854.62
2018-07-19T21:15:50.193Z,100854.42
2018-07-19T21:18:18.266Z,100863.70
2018-07-19T21:20:47.307Z,100853.30
2018-07-19T21:23:15.365Z,100858.14
2018-07-19T21:25:43.400Z,100851.11
2018-07-19T21:28:11.405Z,100851.50
2018-07-19T21:30:39.400Z,100845.92
2018-07-19T21:33:07.496Z,100848.66
2018-07-19T21:35:35.472Z,100845.47
2018-07-19T21:38:03.566Z,100849.88
2018-07-19T21:40:31.766Z,100854.97
2018-07-19T21:42:59.789Z,100848.64
2018-07-19T21:45:27.826Z,100853.48
2018-07-19T21:47:55.820Z,100846.36
2018-07-19T21:50:23.833Z,100837.95
2018-07-19T21:52:51.800Z,100844.86
2018-07-19T21:55:19.836Z,100847.30
2018-07-19T21:57:47.857Z,100845.27
2018-07-19T22:00:15.897Z,100850.80
2018-07-19T22:02:43.944Z,100845.91
2018-07-19T22:05:12.019Z,100847.38
2018-07-19T22:07:40.054Z,100842.97
2018-07-19T22:10:08.200Z,100848.23
2018-07-19T22:12:36.330Z,100841.03
2018-07-19T22:15:05.217Z,100844.27
2018-07-19T22:17:33.358Z,100839.78
2018-07-19T22:20:01.481Z,100843.10
2018-07-19T22:22:29.518Z,100845.98
2018-07-19T22:24:57.580Z,100844.01
2018-07-19T22:27:25.624Z,100844.48
2018-07-19T22:29:53.613Z,100847.76
2018-07-19T22:32:21.597Z,100843.50
2018-07-19T22:34:49.601Z,100838.91
2018-07-19T22:37:17.685Z,100839.05
2018-07-19T22:39:45.692Z,100838.25
2018-07-19T22:42:13.703Z,100840.35
2018-07-19T22:44:41.717Z,100836.91
2018-07-19T22:47:09.724Z,100844.60
2018-07-19T22:49:37.718Z,100841.36
2018-07-19T22:52:05.804Z,100840.48
2018-07-19T22:54:33.797Z,100840.18
2018-07-19T22:57:01.909Z,100838.20
2018-07-19T22:59:29.902Z,100841.66
2018-07-19T23:01:57.896Z,100835.70
2018-07-19T23:04:25.998Z,100838.14
2018-07-19T23:06:53.987Z,100832.97
2018-07-19T23:09:21.988Z,100841.07
2018-07-19T23:11:50.045Z,100834.46
2018-07-19T23:14:18.052Z,100831.21
2018-07-19T23:16:46.143Z,100834.56
2018-07-19T23:19:14.108Z,100829.73
2018-07-19T23:21:42.117Z,100826.50
2018-07-19T23:24:10.113Z,100820.17
2018-07-19T23:26:38.114Z,100817.17
2018-07-19T23:29:06.096Z,100817.94
2018-07-19T23:31:34.091Z,100822.44
2018-07-19T23:34:02.114Z,100825.74
2018-07-19T23:36:34.840Z,100827.61
2018-07-19T23:39:07.205Z,100825.33
2018-07-19T23:41:39.395Z,100822.55
2018-07-19T23:44:11.741Z,100826.41
2018-07-19T23:46:51.228Z,100817.23
2018-07-19T23:49:19.217Z,100814.31
2018-07-19T23:51:47.233Z,100816.16
2018-07-19T23:54:15.241Z,100811.42
2018-07-19T23:56:43.256Z,100821.84
2018-07-19T23:59:11.287Z,100822.98
